createdAt,value
2023-01-04T00:04:43.149Z,0.8
2023-01-04T00:09:49.523Z,1.5
2023-01-04T00:14:45.879Z,0.9
2023-01-04T00:20:02.314Z,1.2
2023-01-04T00:25:08.678Z,1.1
2023-01-04T00:30:15.167Z,1.2
2023-01-04T00:35:55.675Z,1.4
2023-01-04T00:41:03.017Z,2.5
2023-01-04T00:46:09.562Z,0.7
2023-01-04T00:51:15.970Z,1.1
2023-01-04T00:56:22.314Z,0.9
2023-01-04T01:01:28.777Z,0.7
2023-01-04T01:07:16.183Z,1.6
2023-01-04T01:13:35.665Z,0.7
2023-01-04T01:17:29.907Z,1.5
2023-01-04T01:22:36.348Z,0.9
2023-01-04T01:27:42.748Z,1.6
2023-01-04T01:32:39.149Z,1.4
2023-01-04T01:37:59.221Z,0.7
2023-01-04T01:44:37.691Z,0.9
2023-01-04T01:48:11.890Z,0.5
2023-01-04T01:53:18.292Z,0.9
2023-01-04T01:58:52.744Z,0.9
2023-01-04T02:03:55.346Z,1.1
2023-01-04T02:09:39.783Z,1.4
2023-01-04T02:14:23.375Z,0.8
2023-01-04T02:19:55.382Z,1.5
2023-01-04T02:24:37.843Z,1.4
2023-01-04T02:30:04.307Z,2.6
2023-01-04T02:34:56.459Z,1.0
2023-01-04T02:39:57.148Z,2.7
2023-01-04T02:50:10.067Z,0.9
2023-01-04T02:55:16.414Z,1.8
2023-01-04T03:00:22.800Z,1.3
2023-01-04T03:05:29.209Z,2.1
2023-01-04T03:10:35.596Z,1.5
2023-01-04T03:15:45.590Z,1.7
2023-01-04T03:20:51.976Z,1.5
2023-01-04T03:25:58.539Z,1.7
2023-01-04T03:30:54.980Z,2.4
2023-01-04T03:36:10.322Z,1.5
2023-01-04T03:41:17.706Z,2.8
2023-01-04T03:46:47.208Z,2.8
2023-01-04T03:51:30.551Z,3.3
2023-01-04T03:56:36.968Z,3.5
2023-01-04T04:01:43.536Z,4.8
2023-01-04T04:06:39.866Z,3.6
2023-01-04T04:11:56.149Z,0.9
2023-01-04T04:17:02.648Z,2.2
2023-01-04T04:22:09.039Z,1.7
2023-01-04T04:27:15.338Z,1.1
2023-01-04T04:32:21.703Z,1.7
2023-01-04T04:37:28.116Z,1.3
2023-01-04T04:42:34.588Z,1.5
2023-01-04T04:47:40.950Z,1.1
2023-01-04T04:53:07.391Z,0.7
2023-01-04T04:57:53.711Z,1.2
2023-01-04T05:03:24.230Z,2.1
2023-01-04T05:08:26.664Z,2.0
2023-01-04T05:13:13.052Z,1.2
2023-01-04T05:18:19.489Z,1.4
2023-01-04T05:23:25.875Z,1.6
2023-01-04T05:28:32.283Z,1.2
2023-01-04T05:33:28.613Z,1.4
2023-01-04T05:38:45.048Z,1.5
2023-01-04T05:44:15.495Z,1.4
2023-01-04T05:48:57.811Z,1.0
2023-01-04T05:54:04.191Z,0.8
2023-01-04T05:59:00.565Z,1.7
2023-01-04T06:04:17.060Z,0.8
2023-01-04T06:09:23.548Z,0.6
2023-01-04T06:19:38.950Z,1.1
2023-01-04T06:24:46.304Z,0.9
2023-01-04T06:29:42.689Z,0.9
2023-01-04T06:34:59.092Z,1.3
2023-01-04T06:40:05.456Z,0.8
2023-01-04T06:45:01.824Z,0.8
2023-01-04T06:50:42.870Z,0.9
2023-01-04T06:55:25.218Z,1.4
2023-01-04T07:00:55.784Z,1.0
2023-01-04T07:05:38.068Z,1.5
2023-01-04T07:11:08.518Z,1.3
2023-01-04T07:15:50.886Z,0.5
2023-01-04T07:20:57.205Z,0.6
2023-01-04T07:26:03.564Z,1.5
2023-01-04T07:31:10.045Z,1.2
2023-01-04T07:36:15.314Z,0.6
2023-01-04T07:41:22.764Z,0.9
2023-01-04T07:46:29.251Z,2.0
2023-01-04T07:51:35.552Z,2.5
2023-01-04T07:56:41.971Z,1.2
2023-01-04T08:01:48.550Z,1.7
2023-01-04T08:06:54.751Z,1.2
2023-01-04T08:12:01.143Z,1.1
2023-01-04T08:16:57.680Z,2.3
2023-01-04T08:22:14.043Z,1.1
2023-01-04T08:27:20.414Z,1.8
2023-01-04T08:32:26.801Z,0.7
2023-01-04T08:37:33.153Z,1.9
2023-01-04T08:42:39.584Z,1.1
2023-01-04T08:47:46.107Z,1.3
2023-01-04T08:52:52.463Z,1.3
2023-01-04T08:57:58.844Z,1.5
2023-01-04T09:03:05.623Z,1.9
2023-01-04T09:08:01.597Z,0.9
2023-01-04T09:13:07.945Z,1.8
2023-01-04T09:18:48.402Z,1.0
2023-01-04T09:23:30.740Z,0.9
2023-01-04T09:28:37.244Z,0.5
2023-01-04T09:34:18.888Z,1.1
2023-01-04T09:38:48.934Z,0.9
2023-01-04T09:44:20.333Z,0.8
2023-01-04T09:49:22.726Z,0.7
2023-01-04T09:54:09.048Z,1.3
2023-01-04T09:59:15.497Z,1.0
2023-01-04T10:04:11.948Z,1.5
2023-01-04T10:09:28.404Z,1.3
2023-01-04T10:24:47.662Z,1.6
2023-01-04T10:29:54.061Z,2.3
2023-01-04T10:35:00.398Z,2.0
2023-01-04T10:39:56.799Z,1.1
2023-01-04T10:45:14.196Z,0.9
2023-01-04T10:50:20.572Z,2.2
2023-01-04T10:55:26.976Z,1.3
2023-01-04T11:00:57.430Z,1.6
2023-01-04T11:05:39.750Z,3.1
2023-01-04T11:11:06.269Z,1.4
2023-01-04T11:15:52.919Z,1.4
2023-01-04T11:20:59.111Z,0.9
2023-01-04T11:26:05.485Z,1.6
2023-01-04T11:31:01.918Z,1.6
2023-01-04T11:36:42.333Z,0.7
2023-01-04T11:41:24.677Z,0.6
2023-01-04T11:46:55.208Z,1.4
2023-01-04T11:51:37.516Z,0.8
2023-01-04T11:56:43.901Z,1.4
2023-01-04T12:01:51.491Z,1.4
2023-01-04T12:07:21.941Z,0.8
2023-01-04T12:12:04.193Z,0.8
2023-01-04T12:17:14.217Z,1.4
2023-01-04T12:22:43.733Z,1.0
2023-01-04T12:27:27.019Z,1.1
2023-01-04T12:32:33.403Z,0.8
2023-01-04T12:37:39.785Z,0.5
2023-01-04T12:47:52.598Z,0.8
2023-01-04T12:53:19.929Z,0.9
2023-01-04T12:58:04.365Z,1.0
2023-01-04T13:03:12.085Z,1.1
2023-01-04T13:08:22.218Z,1.0
2023-01-04T13:13:24.646Z,0.9
2023-01-04T13:18:55.148Z,0.6
2023-01-04T13:23:37.559Z,0.9
2023-01-04T13:28:33.960Z,1.4
2023-01-04T13:33:50.375Z,2.3
2023-01-04T13:38:56.809Z,1.6
2023-01-04T13:44:03.371Z,1.8
2023-01-04T13:49:09.741Z,0.6
2023-01-04T13:54:06.117Z,0.5
2023-01-04T13:59:26.122Z,1.4
2023-01-04T14:04:22.532Z,1.3
2023-01-04T14:09:38.969Z,1.5
2023-01-04T14:20:14.816Z,1.7
2023-01-04T14:25:19.803Z,2.0
2023-01-04T14:30:06.159Z,1.6
2023-01-04T14:35:14.124Z,1.9
2023-01-04T14:40:20.465Z,1.0
2023-01-04T14:45:28.591Z,1.4
2023-01-04T14:50:33.854Z,1.4
2023-01-04T14:55:41.238Z,1.6
2023-01-04T15:00:47.580Z,1.7
2023-01-04T15:05:54.187Z,1.6
2023-01-04T15:11:00.618Z,0.8
2023-01-04T15:16:08.642Z,3.5
2023-01-04T15:21:14.946Z,1.9
2023-01-04T15:27:17.665Z,1.7
2023-01-04T15:32:05.087Z,1.3
2023-01-04T15:37:11.975Z,1.6
2023-01-04T15:42:18.388Z,2.1
2023-01-04T15:50:33.180Z,1.0
2023-01-04T15:52:55.154Z,2.0
2023-01-04T15:58:49.886Z,1.4
2023-01-04T16:02:44.351Z,1.9
2023-01-04T16:08:14.703Z,1.5
2023-01-04T16:13:21.150Z,2.4
2023-01-04T16:18:02.376Z,0.7
2023-01-04T16:23:33.875Z,2.1
2023-01-04T16:28:16.305Z,2.1
2023-01-04T16:33:22.710Z,1.9
2023-01-04T16:38:29.104Z,1.7
2023-01-04T16:43:35.722Z,2.8
2023-01-04T16:49:07.864Z,2.4
2023-01-04T16:53:50.022Z,3.2
2023-01-04T16:58:55.968Z,2.4
2023-01-04T17:04:17.620Z,1.9
2023-01-04T17:09:09.940Z,3.2
2023-01-04T17:14:17.501Z,6.5
2023-01-04T17:19:23.812Z,3.8
2023-01-04T17:24:30.188Z,4.6
2023-01-04T17:29:36.582Z,2.5
2023-01-04T17:40:19.163Z,3.2
2023-01-04T17:45:22.404Z,2.3
2023-01-04T17:49:54.561Z,3.7
2023-01-04T17:55:10.961Z,3.9
2023-01-04T18:00:17.349Z,3.3
2023-01-04T18:05:23.771Z,3.4
2023-01-04T18:10:41.364Z,2.2
2023-01-04T18:15:44.001Z,2.8
2023-01-04T18:20:46.352Z,1.2
2023-01-04T18:25:49.356Z,2.1
2023-01-04T18:30:55.764Z,1.6
2023-01-04T18:36:02.149Z,2.4
2023-01-04T18:41:08.568Z,2.4
2023-01-04T18:46:15.107Z,2.5
2023-01-04T18:51:21.567Z,2.8
2023-01-04T18:56:27.970Z,2.6
2023-01-04T19:01:34.501Z,3.1
2023-01-04T19:06:41.068Z,3.8
2023-01-04T19:11:47.282Z,2.5
2023-01-04T19:16:53.940Z,2.9
2023-01-04T19:22:00.129Z,4.0
2023-01-04T19:27:06.616Z,2.3
2023-01-04T19:32:13.036Z,0.7
2023-01-04T19:37:19.544Z,2.5
2023-01-04T19:42:45.935Z,3.8
2023-01-04T19:47:57.443Z,2.9
2023-01-04T19:52:39.812Z,2.2
2023-01-04T19:57:46.180Z,1.8
2023-01-04T20:03:17.795Z,3.2
2023-01-04T20:09:12.322Z,4.4
2023-01-04T20:13:26.558Z,2.7
2023-01-04T20:18:14.302Z,3.5
2023-01-04T20:23:19.353Z,5.0
2023-01-04T20:29:25.849Z,2.6
2023-01-04T20:33:52.163Z,3.5
2023-01-04T20:39:02.590Z,2.2
2023-01-04T20:46:33.482Z,3.8
2023-01-04T20:49:35.405Z,3.0
2023-01-04T20:59:22.173Z,2.4
2023-01-04T20:59:24.157Z,4.2
2023-01-04T21:09:16.001Z,3.3
2023-01-04T21:10:10.043Z,4.7
2023-01-04T21:14:23.350Z,3.3
2023-01-04T21:19:53.908Z,5.5
2023-01-04T21:24:36.295Z,2.7
2023-01-04T21:30:06.700Z,4.2
2023-01-04T21:35:09.073Z,4.2
2023-01-04T21:39:55.522Z,3.2
2023-01-04T21:45:25.887Z,2.6
2023-01-04T21:50:28.262Z,3.4
2023-01-04T21:55:35.352Z,3.2
2023-01-04T22:00:11.257Z,4.0
2023-01-04T22:06:11.734Z,2.7
2023-01-04T22:10:34.044Z,3.1
2023-01-04T22:16:40.706Z,2.8
2023-01-04T22:21:11.234Z,1.3
2023-01-04T22:25:53.585Z,2.5
2023-01-04T22:31:20.193Z,4.5
2023-01-04T22:36:15.411Z,3.2
2023-01-04T22:41:12.875Z,2.0
2023-01-04T22:46:19.303Z,2.1
2023-01-04T22:51:25.664Z,2.9
2023-01-04T22:56:53.190Z,4.1
2023-01-04T23:01:39.799Z,2.4
2023-01-04T23:07:46.279Z,5.4
2023-01-04T23:11:52.516Z,4.2
2023-01-04T23:17:18.926Z,5.8
2023-01-04T23:22:05.286Z,3.7
2023-01-04T23:27:11.688Z,5.9
2023-01-04T23:32:18.147Z,2.6
2023-01-04T23:37:24.646Z,3.1
2023-01-04T23:42:31.123Z,3.3
2023-01-04T23:47:37.405Z,0.7
2023-01-04T23:52:43.805Z,4.0
2023-01-04T23:58:10.258Z,2.8
